createdAt,value
2023-03-04T00:01:34.576Z,67.70
2023-03-04T00:06:38.349Z,69.50
2023-03-04T00:11:41.428Z,65.30
2023-03-04T00:16:44.832Z,61.00
2023-03-04T00:21:48.092Z,61.50
2023-03-04T00:26:51.699Z,48.20
2023-03-04T00:31:55.081Z,53.00
2023-03-04T00:37:01.704Z,56.20
2023-03-04T00:42:05.424Z,59.40
2023-03-04T00:47:08.844Z,61.10
2023-03-04T00:52:12.104Z,61.70
2023-03-04T00:57:15.333Z,60.90
2023-03-04T01:02:19.381Z,57.00
2023-03-04T01:07:23.002Z,59.90
2023-03-04T01:12:26.114Z,55.70
2023-03-04T01:17:29.453Z,59.40
2023-03-04T01:22:33.049Z,62.30
2023-03-04T01:27:36.257Z,51.90
2023-03-04T01:32:39.554Z,55.00
2023-03-04T01:37:42.794Z,60.10
2023-03-04T01:42:46.424Z,56.90
2023-03-04T01:47:50.722Z,57.80
2023-03-04T01:52:54.118Z,54.80
2023-03-04T01:57:57.961Z,53.40
2023-03-04T02:03:11.628Z,51.30
2023-03-04T02:08:17.155Z,52.10
2023-03-04T02:13:20.457Z,61.60
2023-03-04T02:18:26.280Z,50.80
2023-03-04T02:23:38.602Z,56.00
2023-03-04T02:28:42.574Z,48.20
2023-03-04T02:33:45.873Z,50.10
2023-03-04T02:38:53.557Z,54.40
2023-03-04T02:43:57.366Z,50.80
2023-03-04T02:49:00.704Z,49.00
2023-03-04T02:54:05.344Z,51.50
2023-03-04T02:59:09.208Z,46.50
2023-03-04T03:04:13.149Z,43.00
2023-03-04T03:09:18.452Z,45.10
2023-03-04T03:14:21.858Z,49.30
2023-03-04T03:19:25.634Z,48.50
2023-03-04T03:24:29.299Z,45.00
2023-03-04T03:29:32.518Z,44.90
2023-03-04T03:34:35.890Z,41.20
2023-03-04T03:39:42.167Z,44.40
2023-03-04T03:44:45.700Z,40.00
2023-03-04T03:49:51.648Z,41.10
2023-03-04T03:54:54.820Z,43.20
2023-03-04T03:59:58.137Z,77.10
2023-03-04T04:05:01.423Z,117.30
2023-03-04T04:10:05.743Z,41.90
2023-03-04T04:15:12.193Z,42.20
2023-03-04T04:20:15.579Z,44.90
2023-03-04T04:25:18.695Z,138.80
2023-03-04T04:30:21.906Z,44.70
2023-03-04T04:35:25.175Z,44.40
2023-03-04T04:40:28.321Z,46.20
2023-03-04T04:45:31.825Z,48.30
2023-03-04T04:50:34.922Z,46.90
2023-03-04T04:55:38.167Z,67.70
2023-03-04T05:00:41.313Z,44.60
2023-03-04T05:05:44.459Z,47.00
2023-03-04T05:10:48.382Z,50.70
2023-03-04T05:15:53.612Z,45.80
2023-03-04T05:20:59.699Z,49.10
2023-03-04T05:26:05.231Z,46.40
2023-03-04T05:31:08.880Z,44.80
2023-03-04T05:36:12.250Z,40.80
2023-03-04T05:41:15.897Z,46.60
2023-03-04T05:46:25.792Z,45.00
2023-03-04T05:51:29.254Z,48.80
2023-03-04T05:56:33.775Z,42.10
2023-03-04T06:01:36.978Z,44.30
2023-03-04T06:06:40.356Z,44.60
2023-03-04T06:11:43.442Z,38.40
2023-03-04T06:16:46.836Z,40.00
2023-03-04T06:21:50.150Z,45.10
2023-03-04T06:26:53.573Z,45.60
2023-03-04T06:31:56.903Z,43.40
2023-03-04T06:37:00.416Z,46.30
2023-03-04T06:42:03.843Z,43.60
2023-03-04T06:47:08.426Z,48.40
2023-03-04T06:52:13.195Z,43.00
2023-03-04T06:57:16.581Z,45.80
2023-03-04T07:02:19.878Z,46.90
2023-03-04T07:07:23.944Z,49.80
2023-03-04T07:12:27.164Z,48.40
2023-03-04T07:17:30.634Z,50.50
2023-03-04T07:22:33.866Z,47.40
2023-03-04T07:27:38.813Z,48.60
2023-03-04T07:32:42.178Z,52.70
2023-03-04T07:37:45.392Z,50.10
2023-03-04T07:42:52.464Z,52.80
2023-03-04T07:47:55.853Z,53.00
2023-03-04T07:52:59.017Z,50.10
2023-03-04T07:58:03.374Z,50.60
2023-03-04T08:03:06.435Z,50.40
2023-03-04T08:08:09.714Z,48.20
2023-03-04T08:13:12.885Z,50.40
2023-03-04T08:18:16.227Z,53.60
2023-03-04T08:23:19.842Z,47.00
2023-03-04T08:28:23.316Z,50.00
2023-03-04T08:33:26.657Z,44.80
2023-03-04T08:38:29.973Z,45.00
2023-03-04T08:43:34.882Z,44.20
2023-03-04T08:48:39.101Z,41.30
2023-03-04T08:53:42.451Z,44.20
2023-03-04T08:58:45.837Z,42.80
2023-03-04T09:03:49.225Z,42.30
2023-03-04T09:08:52.530Z,41.40
2023-03-04T09:13:55.786Z,45.80
2023-03-04T09:19:00.692Z,39.80
2023-03-04T09:24:04.628Z,40.60
2023-03-04T09:29:07.885Z,41.30
2023-03-04T09:34:11.174Z,41.90
2023-03-04T09:39:14.336Z,45.30
2023-03-04T09:44:28.959Z,44.50
2023-03-04T09:49:32.910Z,43.10
2023-03-04T09:55:05.318Z,35.80
2023-03-04T10:00:21.283Z,33.50
2023-03-04T10:05:27.888Z,31.80
2023-03-04T10:10:36.603Z,33.00
2023-03-04T10:15:44.965Z,26.20
2023-03-04T10:20:54.028Z,31.90
2023-03-04T10:26:00.697Z,32.00
2023-03-04T10:31:06.781Z,33.30
2023-03-04T10:36:31.112Z,33.20
2023-03-04T10:41:34.378Z,37.50
2023-03-04T10:46:45.960Z,40.60
2023-03-04T10:52:04.454Z,41.40
2023-03-04T10:57:23.622Z,43.10
2023-03-04T11:02:31.012Z,50.30
2023-03-04T11:07:54.624Z,51.50
2023-03-04T11:12:58.735Z,51.40
2023-03-04T11:18:06.211Z,53.70
2023-03-04T11:23:39.983Z,52.60
2023-03-04T11:28:52.101Z,52.60
2023-03-04T11:34:29.526Z,52.70
2023-03-04T11:39:41.988Z,55.30
2023-03-04T11:44:45.261Z,54.40
2023-03-04T11:50:10.196Z,178.00
2023-03-04T11:55:42.246Z,56.00
2023-03-04T12:01:06.979Z,74.10
2023-03-04T12:06:27.489Z,51.90
2023-03-04T12:11:40.537Z,52.50
2023-03-04T12:17:09.876Z,50.80
2023-03-04T12:22:31.816Z,52.00
2023-03-04T12:28:03.885Z,51.80
2023-03-04T12:33:25.169Z,49.20
2023-03-04T12:38:31.068Z,47.40
2023-03-04T12:43:52.442Z,49.50
2023-03-04T12:49:03.222Z,45.00
2023-03-04T12:54:12.199Z,43.20
2023-03-04T12:59:21.352Z,44.90
2023-03-04T13:04:38.040Z,54.60
2023-03-04T13:10:04.868Z,43.10
2023-03-04T13:15:08.220Z,47.50
2023-03-04T13:20:18.071Z,41.20
2023-03-04T13:25:44.402Z,39.30
2023-03-04T13:30:57.277Z,35.60
2023-03-04T13:36:05.580Z,38.60
2023-03-04T13:41:20.753Z,34.40
2023-03-04T13:46:24.923Z,40.90
2023-03-04T13:51:42.029Z,37.10
2023-03-04T13:57:10.217Z,37.90
2023-03-04T14:02:19.193Z,40.00
2023-03-04T14:07:29.714Z,86.90
2023-03-04T14:12:36.603Z,36.10
2023-03-04T14:17:42.031Z,38.80
2023-03-04T14:22:45.545Z,38.80
2023-03-04T14:27:49.488Z,37.10
2023-03-04T14:32:54.978Z,29.40
2023-03-04T14:38:18.628Z,32.00
2023-03-04T14:43:23.372Z,34.20
2023-03-04T14:48:32.668Z,31.20
2023-03-04T14:53:36.020Z,30.70
2023-03-04T14:58:55.325Z,36.90
2023-03-04T15:04:12.824Z,35.80
2023-03-04T15:09:21.417Z,33.20
2023-03-04T15:14:46.358Z,30.60
2023-03-04T15:19:59.501Z,30.30
2023-03-04T15:26:07.192Z,30.20
2023-03-04T15:31:21.587Z,35.30
2023-03-04T15:44:03.590Z,34.80
2023-03-04T15:49:06.807Z,28.20
2023-03-04T15:54:14.276Z,30.90
2023-03-04T15:59:17.927Z,30.70
2023-03-04T16:04:21.673Z,112.50
2023-03-04T16:09:25.184Z,38.40
2023-03-04T16:14:32.795Z,28.50
2023-03-04T16:19:36.496Z,30.20
2023-03-04T16:24:40.017Z,29.60
2023-03-04T16:29:43.223Z,26.10
2023-03-04T16:34:46.747Z,30.70
2023-03-04T16:39:51.141Z,27.70
2023-03-04T16:44:55.561Z,29.90
2023-03-04T16:49:59.045Z,30.40
2023-03-04T16:55:05.002Z,31.10
2023-03-04T17:00:10.735Z,27.90
2023-03-04T17:05:19.270Z,26.90
2023-03-04T17:10:23.970Z,67.60
2023-03-04T17:15:27.316Z,31.60
2023-03-04T17:20:30.656Z,29.00
2023-03-04T17:25:34.245Z,30.50
2023-03-04T17:30:38.349Z,31.90
2023-03-04T17:35:41.511Z,24.80
2023-03-04T17:40:45.185Z,30.20
2023-03-04T17:45:48.972Z,31.60
2023-03-04T17:50:53.016Z,31.90
2023-03-04T17:56:00.292Z,30.70
2023-03-04T18:01:15.317Z,27.30
2023-03-04T18:06:19.706Z,26.60
2023-03-04T18:11:25.305Z,26.90
2023-03-04T18:16:29.227Z,29.10
2023-03-04T18:21:32.839Z,29.70
2023-03-04T18:26:36.283Z,28.40
2023-03-04T18:31:39.913Z,30.30
2023-03-04T18:36:43.432Z,30.70
2023-03-04T18:41:46.809Z,24.40
2023-03-04T18:46:56.538Z,27.70
2023-03-04T18:51:59.803Z,27.20
2023-03-04T18:57:09.730Z,28.60
2023-03-04T19:02:54.356Z,26.40
2023-03-04T19:07:57.632Z,34.60
2023-03-04T19:13:01.046Z,31.30
2023-03-04T19:18:05.740Z,30.10
2023-03-04T19:23:10.370Z,30.40
2023-03-04T19:28:13.943Z,27.80
2023-03-04T19:33:17.182Z,27.40
2023-03-04T19:38:20.293Z,30.40
2023-03-04T19:43:23.508Z,28.60
2023-03-04T19:48:26.824Z,29.70
2023-03-04T19:53:30.150Z,28.00
2023-03-04T19:58:34.005Z,25.00
2023-03-04T20:03:37.293Z,30.00
2023-03-04T20:08:40.715Z,68.20
2023-03-04T20:13:44.049Z,29.10
2023-03-04T20:18:47.332Z,26.60
2023-03-04T20:23:51.112Z,26.50
2023-03-04T20:28:54.811Z,26.70
2023-03-04T20:33:59.968Z,28.60
2023-03-04T20:39:10.264Z,28.50
2023-03-04T20:44:21.882Z,13.50
2023-03-04T20:49:27.964Z,9.30
2023-03-04T20:54:31.303Z,7.10
2023-03-04T20:59:35.699Z,5.00
2023-03-04T21:04:39.334Z,4.00
2023-03-04T21:09:44.101Z,4.50
2023-03-04T21:14:47.520Z,6.70
2023-03-04T21:19:50.672Z,6.10
2023-03-04T21:24:54.139Z,6.30
2023-03-04T21:29:58.382Z,7.70
2023-03-04T21:35:01.902Z,7.40
2023-03-04T21:40:05.821Z,7.00
2023-03-04T21:45:10.952Z,8.30
2023-03-04T21:50:14.743Z,6.90
2023-03-04T21:55:18.136Z,5.30
2023-03-04T22:00:21.936Z,5.90
2023-03-04T22:05:25.379Z,5.30
2023-03-04T22:10:29.224Z,5.30
2023-03-04T22:15:33.002Z,4.90
2023-03-04T22:20:39.514Z,6.10
2023-03-04T22:25:42.924Z,7.20
2023-03-04T22:30:46.480Z,6.80
2023-03-04T22:35:50.492Z,5.20
2023-03-04T22:40:53.713Z,6.20
2023-03-04T22:46:00.369Z,8.20
2023-03-04T22:51:08.789Z,10.90
2023-03-04T22:56:13.423Z,6.90
2023-03-04T23:01:17.980Z,8.40
2023-03-04T23:06:27.982Z,8.90
2023-03-04T23:11:35.623Z,8.90
2023-03-04T23:16:43.542Z,7.20
2023-03-04T23:21:46.868Z,11.10
2023-03-04T23:26:52.568Z,8.40
2023-03-04T23:31:55.941Z,10.30
2023-03-04T23:36:59.145Z,9.50
2023-03-04T23:42:02.496Z,10.50
2023-03-04T23:47:06.162Z,11.10
2023-03-04T23:52:10.117Z,10.00
2023-03-04T23:57:13.411Z,14.60
